الصفحة الرئيسية
METAR-TAF:

METAR-TAF

مطار :

مطار الملك خالد الدولي

الرياض, السعودية

دائرة عرض: 24-56N, خط طول: 046-43E, ارتفاع: 614 متر

مراقبة الطقس الحالي

تاريخ ووقت الإصدار 1ساعة و 2 دقيقة قبل الساعة 15:00UTC
ريح 16 عقدة من الشمال
درجة الحرارة 44°درجة مئوية
الرطوبة 3%
ضغط 1003 hPa
الرؤية: 6000 متر

METAR: OERK 201500Z 35016KT 6000 NSC 44/M10 Q1003 NOSIG

زمن: 19:02 (16:02 UTC)

توقعات

تاريخ ووقت الإصدار 5ساعات و 2 دقيقة قبل الساعة 11:00UTC
التوقعات صالحة من20 الساعة 12 UTC إلى 21 الساعة 18 UTC
ريح 15 عقدة من الشمال
الرؤية: 7000 متر
مؤقت
من 20 الساعة 12 UTC إلى 20 الساعة 20 UTC
الرؤية: 3000 متر
هبوب الغبار
نظرية الاحتمالات 30% :
مؤقت
من 20 الساعة 14 UTC إلى 20 الساعة 18 UTC
ريح 20 عقدةمن اتجاهات متغيرة
الرؤية: 0800 متر
هبوب الرمال
أصبح
من 20 الساعة 20 UTC إلى 20 الساعة 22 UTC
ريح 8 عقدة من الشمال الغربي
أصبح
من 21 الساعة 06 UTC إلى 21 الساعة 08 UTC
ريح 16 عقدة من الشمال/الشمال الشرقي

TAF: OERK 201100Z 2012/2118 35015KT 7000 NSC TEMPO 2012/2020 3000 BLDU PROB30 TEMPO 2014/2018 VRB20KT 0800 BLSA BECMG 2020/2022 32008KT BECMG 2106/2108 02016KT

أرصاد الطقس والتوقعات من أكثر من 4000 مطار (تقارير الطقس للمطار METAR والتنبؤ بالطقس بالمطارTAF).

المحطات المتاحة هي النقط الصفراء والحمراء على الخريطة.

حرك المؤشر فوق النقطة لمعرفة اسم المحطة.

ثم انقر لمعرفة أرصاد وتوقعات الطقس.

لتغيير الخارطة: اضغط على الأزرار الخضراء مع رمز الصليب الأسود للتكبير. على الزر الأخضر مع شرطة للتصغير، أو على الأسهم الخضراء للخرائط المجاورة.


METAR-TAF: